createdAt,value
2023-05-25T00:01:00.551Z,4.15
2023-05-25T00:03:47.607Z,4.70
2023-05-25T00:06:33.789Z,4.20
2023-05-25T00:09:20.030Z,4.07
2023-05-25T00:12:06.427Z,4.13
2023-05-25T00:14:52.320Z,4.43
2023-05-25T00:17:38.532Z,4.28
2023-05-25T00:20:24.848Z,4.00
2023-05-25T00:23:11.425Z,4.43
2023-05-25T00:25:57.727Z,4.45
2023-05-25T00:28:43.862Z,4.80
2023-05-25T00:31:33.028Z,4.10
2023-05-25T00:34:19.294Z,4.55
2023-05-25T00:37:05.586Z,4.28
2023-05-25T00:39:52.185Z,4.30
2023-05-25T00:42:39.418Z,5.25
2023-05-25T00:45:25.574Z,3.97
2023-05-25T00:48:12.386Z,4.65
2023-05-25T00:51:00.181Z,4.97
2023-05-25T00:53:46.818Z,4.82
2023-05-25T00:56:35.726Z,4.47
2023-05-25T00:59:31.431Z,4.60
2023-05-25T01:02:19.968Z,5.80
2023-05-25T01:05:06.891Z,5.30
2023-05-25T01:07:54.325Z,4.75
2023-05-25T01:10:42.628Z,5.47
2023-05-25T01:13:28.926Z,5.43
2023-05-25T01:16:17.132Z,4.63
2023-05-25T01:19:04.475Z,4.60
2023-05-25T01:21:59.085Z,5.15
2023-05-25T01:24:48.446Z,4.63
2023-05-25T01:27:43.685Z,5.25
2023-05-25T01:30:30.641Z,4.72
2023-05-25T01:33:20.262Z,4.78
2023-05-25T01:36:06.528Z,4.45
2023-05-25T01:38:53.001Z,4.68
2023-05-25T01:41:39.222Z,5.15
2023-05-25T01:44:26.686Z,4.85
2023-05-25T01:47:37.477Z,4.53
2023-05-25T01:50:27.423Z,5.13
2023-05-25T01:53:18.891Z,4.63
2023-05-25T01:56:09.466Z,5.25
2023-05-25T01:58:57.072Z,4.95
2023-05-25T02:01:44.254Z,5.13
2023-05-25T02:04:31.610Z,4.70
2023-05-25T02:07:17.862Z,4.70
2023-05-25T02:10:04.373Z,4.32
2023-05-25T02:12:50.167Z,4.15
2023-05-25T02:15:38.139Z,4.53
2023-05-25T02:18:24.318Z,4.53
2023-05-25T02:21:13.904Z,4.53
2023-05-25T02:24:00.983Z,5.18
2023-05-25T02:26:47.299Z,4.88
2023-05-25T02:29:33.511Z,5.40
2023-05-25T02:32:21.432Z,4.72
2023-05-25T02:35:07.700Z,4.97
2023-05-25T02:37:54.159Z,5.18
2023-05-25T02:40:40.712Z,4.75
2023-05-25T02:43:26.976Z,5.15
2023-05-25T02:46:13.199Z,4.70
2023-05-25T02:49:00.114Z,6.00
2023-05-25T02:51:46.241Z,5.82
2023-05-25T02:54:32.388Z,5.40
2023-05-25T02:57:18.548Z,4.97
2023-05-25T03:00:07.698Z,5.40
2023-05-25T03:02:55.104Z,6.03
2023-05-25T03:05:41.549Z,5.30
2023-05-25T03:08:27.464Z,5.55
2023-05-25T03:11:13.752Z,5.93
2023-05-25T03:14:01.573Z,5.75
2023-05-25T03:16:50.417Z,4.97
2023-05-25T03:19:38.680Z,4.88
2023-05-25T03:22:24.898Z,4.60
2023-05-25T03:25:13.249Z,5.10
2023-05-25T03:27:59.283Z,5.43
2023-05-25T03:31:22.869Z,5.63
2023-05-25T03:34:09.200Z,5.43
2023-05-25T03:36:57.381Z,5.07
2023-05-25T03:39:43.890Z,5.03
2023-05-25T03:42:30.006Z,5.65
2023-05-25T03:45:17.296Z,5.28
2023-05-25T03:48:03.488Z,5.43
2023-05-25T03:50:50.711Z,4.97
2023-05-25T03:53:36.709Z,5.20
2023-05-25T03:56:23.289Z,5.40
2023-05-25T03:59:09.354Z,5.47
2023-05-25T04:01:55.698Z,5.47
2023-05-25T04:04:42.089Z,5.10
2023-05-25T04:07:30.218Z,4.90
2023-05-25T04:10:43.247Z,4.65
2023-05-25T04:13:29.023Z,5.88
2023-05-25T04:16:15.265Z,4.45
2023-05-25T04:19:01.524Z,4.70
2023-05-25T04:21:47.594Z,4.60
2023-05-25T04:24:35.309Z,5.60
2023-05-25T04:27:22.321Z,5.75
2023-05-25T04:30:08.817Z,6.78
2023-05-25T04:33:07.176Z,6.93
2023-05-25T04:35:58.737Z,6.28
2023-05-25T04:38:48.548Z,6.20
2023-05-25T04:41:36.116Z,6.18
2023-05-25T04:44:25.852Z,5.68
2023-05-25T04:47:12.751Z,7.25
2023-05-25T04:49:58.946Z,6.40
2023-05-25T04:52:45.113Z,6.00
2023-05-25T04:55:31.484Z,5.53
2023-05-25T04:58:18.497Z,5.18
2023-05-25T05:01:04.902Z,6.53
2023-05-25T05:03:51.778Z,6.97
2023-05-25T05:06:38.297Z,6.60
2023-05-25T05:09:25.466Z,7.57
2023-05-25T05:12:14.907Z,7.35
2023-05-25T05:15:07.510Z,6.03
2023-05-25T05:17:54.309Z,6.07
2023-05-25T05:20:41.316Z,6.20
2023-05-25T05:23:27.818Z,5.47
2023-05-25T05:26:15.476Z,6.20
2023-05-25T05:29:02.012Z,6.32
2023-05-25T05:31:48.328Z,6.22
2023-05-25T05:34:34.651Z,6.18
2023-05-25T05:37:25.519Z,9.65
2023-05-25T05:40:12.956Z,7.85
2023-05-25T05:43:01.325Z,7.85
2023-05-25T05:45:47.317Z,7.68
2023-05-25T05:48:33.383Z,8.00
2023-05-25T05:51:19.493Z,7.78
2023-05-25T05:54:05.713Z,7.03
2023-05-25T05:56:51.840Z,6.63
2023-05-25T05:59:38.242Z,7.28
2023-05-25T06:02:24.312Z,7.88
2023-05-25T06:05:10.859Z,8.50
2023-05-25T06:07:58.734Z,8.98
2023-05-25T06:10:44.682Z,8.82
2023-05-25T06:13:30.688Z,10.13
2023-05-25T06:16:16.967Z,9.70
2023-05-25T06:19:03.170Z,8.90
2023-05-25T06:21:49.808Z,9.05
2023-05-25T06:24:40.641Z,9.57
2023-05-25T06:27:26.765Z,8.80
2023-05-25T06:30:12.932Z,8.43
2023-05-25T06:32:59.626Z,9.23
2023-05-25T06:35:47.107Z,9.82
2023-05-25T06:38:34.145Z,10.20
2023-05-25T06:41:20.254Z,9.60
2023-05-25T06:44:07.052Z,9.10
2023-05-25T06:47:00.250Z,8.07
2023-05-25T06:49:46.234Z,8.85
2023-05-25T06:52:32.441Z,9.68
2023-05-25T06:55:18.651Z,8.10
2023-05-25T06:58:04.706Z,7.28
2023-05-25T07:00:51.011Z,9.15
2023-05-25T07:03:38.767Z,8.88
2023-05-25T07:06:26.021Z,8.13
2023-05-25T07:09:12.886Z,8.57
2023-05-25T07:11:58.930Z,7.05
2023-05-25T07:14:48.262Z,8.93
2023-05-25T07:17:36.720Z,8.38
2023-05-25T07:20:23.599Z,8.35
2023-05-25T07:23:10.378Z,7.75
2023-05-25T07:25:56.250Z,7.43
2023-05-25T07:28:42.488Z,6.93
2023-05-25T07:31:29.735Z,6.32
2023-05-25T07:34:15.928Z,5.80
2023-05-25T07:37:02.267Z,6.85
2023-05-25T07:40:09.317Z,7.45
2023-05-25T07:42:55.733Z,6.53
2023-05-25T07:45:42.128Z,6.05
2023-05-25T07:48:28.446Z,6.03
2023-05-25T07:51:42.498Z,6.38
2023-05-25T07:54:29.805Z,5.70
2023-05-25T07:57:16.370Z,4.82
2023-05-25T08:00:02.598Z,6.00
2023-05-25T08:02:59.577Z,5.70
2023-05-25T08:05:46.051Z,4.97
2023-05-25T08:08:32.269Z,5.80
2023-05-25T08:11:18.197Z,5.57
2023-05-25T08:14:04.510Z,4.88
2023-05-25T08:16:51.624Z,5.78
2023-05-25T08:19:37.868Z,5.45
2023-05-25T08:26:55.151Z,5.60
2023-05-25T08:34:05.078Z,5.57
2023-05-25T08:37:34.687Z,5.13
2023-05-25T08:40:52.309Z,5.05
2023-05-25T08:47:21.890Z,3.53
2023-05-25T08:50:29.972Z,5.00
2023-05-25T08:53:22.234Z,5.40
2023-05-25T08:56:29.248Z,4.38
2023-05-25T09:00:13.526Z,4.88
2023-05-25T09:03:19.366Z,5.03
2023-05-25T09:06:41.039Z,4.53
2023-05-25T09:09:40.615Z,3.88
2023-05-25T09:12:41.346Z,3.80
2023-05-25T09:16:00.701Z,3.63
2023-05-25T09:18:58.558Z,3.42
2023-05-25T09:29:40.517Z,3.13
2023-05-25T09:32:53.236Z,2.80
2023-05-25T09:42:02.365Z,3.88
2023-05-25T09:44:48.708Z,3.05
2023-05-25T09:47:36.501Z,4.00
2023-05-25T09:50:24.916Z,2.10
2023-05-25T09:53:11.322Z,1.80
2023-05-25T09:55:57.519Z,1.25
2023-05-25T09:58:43.943Z,1.27
2023-05-25T10:01:30.138Z,1.35
2023-05-25T10:04:40.199Z,1.40
2023-05-25T10:07:59.004Z,1.92
2023-05-25T10:10:50.189Z,2.10
2023-05-25T10:13:37.617Z,1.67
2023-05-25T10:16:26.324Z,2.00
2023-05-25T10:19:37.350Z,2.90
2023-05-25T10:25:58.205Z,2.70
2023-05-25T10:28:47.382Z,2.80
2023-05-25T10:31:38.424Z,2.40
2023-05-25T10:34:25.819Z,2.72
2023-05-25T10:37:19.860Z,2.80
2023-05-25T10:40:11.167Z,2.78
2023-05-25T10:43:03.903Z,2.58
2023-05-25T10:45:50.336Z,2.85
2023-05-25T10:48:41.289Z,3.00
2023-05-25T10:51:39.367Z,2.65
2023-05-25T10:54:39.922Z,2.58
2023-05-25T10:57:52.084Z,2.72
2023-05-25T11:05:22.696Z,2.40
2023-05-25T11:08:20.176Z,2.45
2023-05-25T11:11:09.613Z,2.30
2023-05-25T11:19:01.720Z,2.20
2023-05-25T11:22:15.647Z,3.47
2023-05-25T11:26:24.818Z,2.60
2023-05-25T11:28:33.850Z,2.35
2023-05-25T11:48:58.431Z,2.75
2023-05-25T11:51:47.567Z,2.58
2023-05-25T11:54:58.742Z,2.22
2023-05-25T11:57:55.162Z,3.33
2023-05-25T12:01:12.985Z,2.95
2023-05-25T12:14:37.179Z,2.10
2023-05-25T12:17:23.570Z,2.10
2023-05-25T12:20:15.876Z,2.10
2023-05-25T12:23:28.906Z,1.95
2023-05-25T12:38:09.491Z,2.00
2023-05-25T12:41:16.405Z,1.52
2023-05-25T12:44:36.447Z,2.83
2023-05-25T12:47:28.923Z,2.30
2023-05-25T12:50:15.614Z,2.47
2023-05-25T12:53:06.008Z,2.45
2023-05-25T12:56:05.379Z,3.25
2023-05-25T12:59:17.093Z,2.53
2023-05-25T13:02:05.471Z,3.17
2023-05-25T13:04:54.264Z,2.50
2023-05-25T13:07:41.640Z,2.40
2023-05-25T13:10:28.953Z,2.72
2023-05-25T13:13:30.083Z,2.55
2023-05-25T13:16:28.067Z,2.80
2023-05-25T13:19:22.025Z,2.70
2023-05-25T13:22:08.521Z,3.08
2023-05-25T13:24:55.039Z,2.13
2023-05-25T13:27:48.989Z,3.33
2023-05-25T13:30:42.001Z,3.92
2023-05-25T13:33:28.788Z,3.55
2023-05-25T13:36:15.662Z,3.72
2023-05-25T13:39:02.399Z,3.40
2023-05-25T13:41:48.990Z,2.95
2023-05-25T13:44:35.544Z,2.35
2023-05-25T13:50:13.826Z,2.70
2023-05-25T13:53:00.034Z,2.63
2023-05-25T13:55:45.847Z,2.72
2023-05-25T13:58:32.851Z,2.80
2023-05-25T14:01:20.551Z,2.42
2023-05-25T14:04:15.002Z,2.90
2023-05-25T14:07:12.397Z,3.17
2023-05-25T14:10:00.241Z,2.25
2023-05-25T14:12:47.107Z,2.20
2023-05-25T14:15:40.611Z,2.85
2023-05-25T14:18:27.901Z,1.95
2023-05-25T14:21:14.400Z,2.53
2023-05-25T14:24:04.256Z,3.00
2023-05-25T14:31:11.956Z,2.58
2023-05-25T14:34:26.637Z,2.58
2023-05-25T14:37:20.767Z,1.88
2023-05-25T14:40:11.922Z,2.42
2023-05-25T14:43:47.740Z,2.20
2023-05-25T14:46:52.232Z,1.83
2023-05-25T14:49:42.487Z,1.90
2023-05-25T14:52:28.724Z,2.08
2023-05-25T14:55:20.716Z,1.98
2023-05-25T14:58:08.248Z,1.85
2023-05-25T15:04:02.175Z,1.55
2023-05-25T15:06:50.405Z,1.42
2023-05-25T15:10:27.248Z,1.73
2023-05-25T15:18:12.670Z,1.98
2023-05-25T15:21:51.169Z,2.00
2023-05-25T15:24:47.282Z,2.00
2023-05-25T15:27:35.163Z,1.73
2023-05-25T15:30:25.705Z,1.63
2023-05-25T15:33:14.807Z,1.63
2023-05-25T15:36:00.984Z,1.48
2023-05-25T15:38:49.397Z,1.60
2023-05-25T15:41:37.542Z,1.05
2023-05-25T15:44:25.070Z,1.50
2023-05-25T15:47:14.015Z,1.80
2023-05-25T15:50:00.228Z,1.60
2023-05-25T15:52:47.087Z,1.65
2023-05-25T15:55:33.737Z,1.63
2023-05-25T15:58:20.597Z,1.60
2023-05-25T16:01:08.411Z,1.60
2023-05-25T16:03:55.271Z,1.65
2023-05-25T16:06:41.465Z,1.38
2023-05-25T16:09:27.709Z,1.27
2023-05-25T16:12:13.672Z,1.77
2023-05-25T16:15:00.451Z,2.13
2023-05-25T16:17:47.378Z,1.50
2023-05-25T16:20:34.774Z,1.90
2023-05-25T16:23:24.248Z,1.33
2023-05-25T16:26:10.425Z,1.48
2023-05-25T16:29:15.490Z,1.25
2023-05-25T16:32:04.567Z,1.85
2023-05-25T16:34:50.687Z,1.60
2023-05-25T16:37:36.719Z,1.80
2023-05-25T16:40:23.121Z,1.88
2023-05-25T16:43:12.572Z,1.40
2023-05-25T16:45:58.789Z,1.98
2023-05-25T16:48:48.847Z,1.42
2023-05-25T16:51:35.066Z,1.42
2023-05-25T16:54:21.298Z,1.42
2023-05-25T16:57:11.419Z,1.20
2023-05-25T16:59:57.452Z,2.78
2023-05-25T17:02:43.681Z,1.67
2023-05-25T17:05:30.215Z,2.50
2023-05-25T17:08:16.575Z,2.50
2023-05-25T17:11:02.727Z,2.30
2023-05-25T17:13:49.009Z,2.40
2023-05-25T17:16:37.110Z,2.13
2023-05-25T17:19:23.226Z,1.88
2023-05-25T17:22:09.790Z,1.55
2023-05-25T17:29:26.708Z,2.10
2023-05-25T17:32:38.609Z,1.88
2023-05-25T17:35:55.176Z,2.20
2023-05-25T17:42:32.114Z,5.15
2023-05-25T17:45:21.683Z,22.42
2023-05-25T17:48:30.078Z,10.93
2023-05-25T17:51:24.396Z,3.17
2023-05-25T17:54:31.477Z,2.20
2023-05-25T17:57:31.905Z,2.03
2023-05-25T18:00:23.196Z,2.67
2023-05-25T18:06:52.557Z,8.18
2023-05-25T18:09:44.732Z,7.13
2023-05-25T18:13:03.536Z,4.97
2023-05-25T18:16:45.981Z,2.50
2023-05-25T18:19:39.880Z,2.30
2023-05-25T18:22:37.206Z,2.58
2023-05-25T18:25:29.336Z,2.42
2023-05-25T18:28:24.926Z,3.35
2023-05-25T18:31:21.387Z,2.70
2023-05-25T18:34:35.134Z,1.73
2023-05-25T18:37:30.488Z,1.73
2023-05-25T18:41:11.896Z,1.63
2023-05-25T18:45:14.509Z,1.80
2023-05-25T18:48:12.558Z,2.15
2023-05-25T18:51:07.707Z,2.35
2023-05-25T18:57:38.131Z,2.38
2023-05-25T19:00:26.458Z,2.72
2023-05-25T19:03:17.336Z,2.95
2023-05-25T19:06:05.644Z,2.90
2023-05-25T19:09:16.512Z,3.88
2023-05-25T19:12:31.088Z,2.42
2023-05-25T19:18:43.982Z,8.77
2023-05-25T19:21:30.414Z,3.58
2023-05-25T19:28:54.061Z,2.92
2023-05-25T19:31:44.643Z,2.50
2023-05-25T19:34:33.147Z,2.42
2023-05-25T19:37:19.472Z,3.72
2023-05-25T19:40:15.113Z,5.40
2023-05-25T19:43:02.730Z,3.47
2023-05-25T19:45:51.495Z,2.67
2023-05-25T19:48:46.168Z,2.03
2023-05-25T19:51:33.253Z,2.45
2023-05-25T19:54:20.040Z,2.10
2023-05-25T19:58:04.174Z,2.80
2023-05-25T20:04:13.733Z,2.38
2023-05-25T20:14:31.751Z,2.53
2023-05-25T20:17:30.146Z,3.40
2023-05-25T20:20:16.985Z,2.75
2023-05-25T20:23:04.796Z,2.67
2023-05-25T20:25:54.303Z,2.20
2023-05-25T20:28:52.729Z,2.80
2023-05-25T20:31:46.431Z,2.78
2023-05-25T20:34:32.686Z,3.25
2023-05-25T20:37:23.382Z,2.58
2023-05-25T20:40:27.786Z,2.60
2023-05-25T20:43:49.114Z,2.60
2023-05-25T20:46:46.494Z,2.65
2023-05-25T20:50:10.661Z,3.00
2023-05-25T20:57:43.373Z,2.40
2023-05-25T21:00:29.984Z,2.17
2023-05-25T21:03:20.856Z,2.63
2023-05-25T21:06:10.092Z,2.83
2023-05-25T21:09:01.151Z,2.45
2023-05-25T21:11:47.487Z,3.10
2023-05-25T21:14:34.853Z,2.50
2023-05-25T21:17:22.834Z,2.65
2023-05-25T21:20:10.234Z,2.83
2023-05-25T21:22:58.891Z,2.42
2023-05-25T21:25:48.586Z,2.70
2023-05-25T21:28:47.176Z,3.33
2023-05-25T21:31:40.068Z,2.92
2023-05-25T21:34:31.984Z,2.53
2023-05-25T21:37:26.913Z,2.65
2023-05-25T21:40:33.702Z,3.00
2023-05-25T21:43:22.896Z,2.70
2023-05-25T21:46:10.536Z,2.60
2023-05-25T21:49:02.882Z,2.90
2023-05-25T21:51:51.568Z,3.00
2023-05-25T21:54:38.041Z,3.20
2023-05-25T21:57:31.669Z,3.08
2023-05-25T22:00:18.826Z,2.90
2023-05-25T22:03:23.406Z,2.45
2023-05-25T22:06:36.807Z,2.50
2023-05-25T22:09:35.795Z,2.65
2023-05-25T22:12:21.763Z,2.65
2023-05-25T22:15:26.488Z,2.72
2023-05-25T22:18:12.657Z,2.88
2023-05-25T22:21:17.604Z,2.83
2023-05-25T22:24:04.348Z,2.40
2023-05-25T22:26:53.285Z,2.50
2023-05-25T22:29:44.375Z,3.38
2023-05-25T22:32:30.803Z,2.95
2023-05-25T22:35:20.094Z,3.20
2023-05-25T22:38:17.698Z,3.03
2023-05-25T22:41:04.005Z,2.80
2023-05-25T22:44:00.738Z,3.38
2023-05-25T22:46:51.473Z,2.95
2023-05-25T22:49:41.750Z,3.45
2023-05-25T22:52:34.549Z,2.95
2023-05-25T22:55:20.668Z,3.33
2023-05-25T22:58:09.339Z,3.08
2023-05-25T23:00:57.679Z,3.17
2023-05-25T23:03:43.982Z,2.80
2023-05-25T23:06:30.160Z,3.70
2023-05-25T23:09:17.626Z,2.83
2023-05-25T23:12:03.822Z,2.42
2023-05-25T23:14:53.689Z,2.70
2023-05-25T23:17:39.785Z,2.72
2023-05-25T23:20:26.212Z,3.08
2023-05-25T23:23:12.965Z,2.80
2023-05-25T23:25:59.142Z,2.95
2023-05-25T23:28:48.071Z,3.20
2023-05-25T23:31:34.215Z,3.17
2023-05-25T23:34:47.540Z,2.85
2023-05-25T23:38:12.245Z,3.85
2023-05-25T23:40:58.542Z,3.60
2023-05-25T23:43:45.741Z,2.63
2023-05-25T23:46:33.522Z,3.13
2023-05-25T23:49:23.584Z,2.95
2023-05-25T23:52:10.654Z,3.30
2023-05-25T23:54:59.390Z,3.00
2023-05-25T23:57:45.481Z,3.35
